createdAt,value
2019-06-08T00:00:00.498Z,16.44
2019-06-08T00:04:54.451Z,16.50
2019-06-08T00:09:48.458Z,16.60
2019-06-08T00:14:42.458Z,16.55
2019-06-08T00:19:36.408Z,16.53
2019-06-08T00:24:30.500Z,16.50
2019-06-08T00:29:24.654Z,16.50
2019-06-08T00:34:18.793Z,16.51
2019-06-08T00:39:13.271Z,16.46
2019-06-08T00:44:07.246Z,16.41
2019-06-08T00:49:01.273Z,16.35
2019-06-08T00:53:55.350Z,16.40
2019-06-08T00:58:49.322Z,16.50
2019-06-08T01:03:43.289Z,16.44
2019-06-08T01:08:37.248Z,16.40
2019-06-08T01:13:31.240Z,16.45
2019-06-08T01:18:25.909Z,16.39
2019-06-08T01:23:19.852Z,16.39
2019-06-08T01:28:13.797Z,16.31
2019-06-08T01:33:07.855Z,16.29
2019-06-08T01:38:01.818Z,16.17
2019-06-08T01:42:55.871Z,16.20
2019-06-08T01:47:49.835Z,16.17
2019-06-08T01:52:43.799Z,16.04
2019-06-08T01:57:37.751Z,16.05
2019-06-08T02:02:32.080Z,16.06
2019-06-08T02:07:26.367Z,16.04
2019-06-08T02:12:20.449Z,15.95
2019-06-08T02:17:14.415Z,15.96
2019-06-08T02:22:08.372Z,15.97
2019-06-08T02:27:02.547Z,15.88
2019-06-08T02:31:56.506Z,15.93
2019-06-08T02:36:50.556Z,15.91
2019-06-08T02:41:44.720Z,15.81
2019-06-08T02:46:40.433Z,15.85
2019-06-08T02:51:36.450Z,15.81
2019-06-08T02:56:31.985Z,15.76
2019-06-08T03:01:26.190Z,15.71
2019-06-08T03:06:21.148Z,15.69
2019-06-08T03:11:17.165Z,15.65
2019-06-08T03:16:11.121Z,15.65
2019-06-08T03:21:05.063Z,15.62
2019-06-08T03:25:59.074Z,15.56
2019-06-08T03:30:54.901Z,15.54
2019-06-08T03:35:57.191Z,15.48
2019-06-08T03:40:45.305Z,15.45
2019-06-08T03:45:40.793Z,15.40
2019-06-08T03:50:35.938Z,15.40
2019-06-08T03:55:31.191Z,15.40
2019-06-08T04:00:25.237Z,15.27
2019-06-08T04:05:19.322Z,15.37
2019-06-08T04:10:13.725Z,15.32
2019-06-08T04:15:08.080Z,15.23
2019-06-08T04:20:10.960Z,15.24
2019-06-08T04:25:01.217Z,15.26
2019-06-08T04:29:55.183Z,15.19
2019-06-08T04:34:50.033Z,15.20
2019-06-08T04:39:44.570Z,15.17
2019-06-08T04:44:40.483Z,15.24
2019-06-08T04:49:34.605Z,15.20
2019-06-08T04:54:28.669Z,15.11
2019-06-08T04:59:22.616Z,15.21
2019-06-08T05:04:16.577Z,15.27
2019-06-08T05:09:10.525Z,15.24
2019-06-08T05:14:04.692Z,15.21
2019-06-08T05:18:58.657Z,15.20
2019-06-08T05:23:58.533Z,15.26
2019-06-08T05:28:49.518Z,15.29
2019-06-08T05:33:43.697Z,15.29
2019-06-08T05:38:37.675Z,15.32
2019-06-08T05:43:31.651Z,15.56
2019-06-08T05:48:25.734Z,15.74
2019-06-08T05:53:19.764Z,15.71
2019-06-08T05:58:13.845Z,15.74
2019-06-08T06:03:08.176Z,15.51
2019-06-08T06:08:02.301Z,15.51
2019-06-08T06:12:56.378Z,15.39
2019-06-08T06:17:51.568Z,15.41
2019-06-08T06:22:45.890Z,15.43
2019-06-08T06:27:41.463Z,15.51
2019-06-08T06:32:35.539Z,15.62
2019-06-08T06:37:29.505Z,15.88
2019-06-08T06:42:24.982Z,16.08
2019-06-08T06:47:19.453Z,16.26
2019-06-08T06:52:13.412Z,16.00
2019-06-08T06:57:07.369Z,15.90
2019-06-08T07:02:01.644Z,16.20
2019-06-08T07:06:55.614Z,16.53
2019-06-08T07:11:50.885Z,16.56
2019-06-08T07:16:45.816Z,16.78
2019-06-08T07:21:42.092Z,16.48
2019-06-08T07:26:35.734Z,16.28
2019-06-08T07:31:29.688Z,15.95
2019-06-08T07:36:23.761Z,16.07
2019-06-08T07:41:17.729Z,16.77
2019-06-08T07:46:11.721Z,16.69
2019-06-08T07:51:05.690Z,16.56
2019-06-08T07:55:59.848Z,16.97
2019-06-08T08:00:54.939Z,16.97
2019-06-08T08:05:50.356Z,17.07
2019-06-08T08:10:44.390Z,17.01
2019-06-08T08:15:38.436Z,16.71
2019-06-08T08:20:32.420Z,16.53
2019-06-08T08:25:28.174Z,16.81
2019-06-08T08:30:22.487Z,16.95
2019-06-08T08:35:18.503Z,17.14
2019-06-08T08:40:12.433Z,17.41
2019-06-08T08:45:08.647Z,17.21
2019-06-08T08:50:04.220Z,17.06
2019-06-08T08:55:00.420Z,17.13
2019-06-08T08:59:56.110Z,17.32
2019-06-08T09:04:50.661Z,17.90
2019-06-08T09:09:48.051Z,17.90
2019-06-08T09:14:42.017Z,17.84
2019-06-08T09:19:38.175Z,17.72
2019-06-08T09:24:32.121Z,17.96
2019-06-08T09:29:28.746Z,18.65
2019-06-08T09:34:22.245Z,18.33
2019-06-08T09:41:15.569Z,18.11
2019-06-08T09:46:09.771Z,18.17
2019-06-08T09:51:05.645Z,17.81
2019-06-08T09:56:03.907Z,18.17
2019-06-08T10:00:57.205Z,18.84
2019-06-08T10:05:51.573Z,18.69
2019-06-08T10:10:48.224Z,19.08
2019-06-08T10:15:41.613Z,19.39
2019-06-08T10:20:38.243Z,19.10
2019-06-08T10:25:31.453Z,18.74
2019-06-08T10:30:25.413Z,18.96
2019-06-08T10:35:21.088Z,19.11
2019-06-08T10:40:18.690Z,18.85
2019-06-08T10:45:15.056Z,18.88
2019-06-08T10:50:15.423Z,19.04
2019-06-08T10:55:10.415Z,19.31
2019-06-08T11:00:17.851Z,19.77
2019-06-08T11:05:09.170Z,20.66
2019-06-08T11:10:01.891Z,21.96
2019-06-08T11:14:57.975Z,22.44
2019-06-08T11:19:51.901Z,21.11
2019-06-08T11:24:48.409Z,20.63
2019-06-08T11:29:41.854Z,21.87
2019-06-08T11:34:37.708Z,22.59
2019-06-08T11:39:31.832Z,23.68
2019-06-08T11:44:27.610Z,22.02
2019-06-08T11:49:21.806Z,20.54
2019-06-08T11:54:32.031Z,20.36
2019-06-08T11:59:14.320Z,20.19
2019-06-08T12:04:07.956Z,22.09
2019-06-08T12:09:02.706Z,23.10
2019-06-08T12:13:58.502Z,20.92
2019-06-08T12:18:52.758Z,19.84
2019-06-08T12:23:46.740Z,20.08
2019-06-08T12:28:40.825Z,20.21
2019-06-08T12:33:34.820Z,20.78
2019-06-08T12:38:32.180Z,22.12
2019-06-08T12:43:24.786Z,21.54
2019-06-08T12:48:23.467Z,21.41
2019-06-08T12:53:18.237Z,22.44
2019-06-08T12:58:12.957Z,24.99
2019-06-08T13:03:08.594Z,23.82
2019-06-08T13:08:03.463Z,21.09
2019-06-08T13:12:58.404Z,20.68
2019-06-08T13:17:52.445Z,20.54
2019-06-08T13:22:48.234Z,24.40
2019-06-08T13:27:42.531Z,23.27
2019-06-08T13:32:38.253Z,21.47
2019-06-08T13:37:32.481Z,21.60
2019-06-08T13:42:27.924Z,22.07
2019-06-08T13:47:23.112Z,23.26
2019-06-08T13:52:19.021Z,23.03
2019-06-08T13:57:13.498Z,21.91
2019-06-08T14:02:07.526Z,20.89
2019-06-08T14:07:01.470Z,20.86
2019-06-08T14:11:57.611Z,20.25
2019-06-08T14:16:51.453Z,19.48
2019-06-08T14:21:47.601Z,21.97
2019-06-08T14:26:41.402Z,21.18
2019-06-08T14:31:37.949Z,23.13
2019-06-08T14:36:31.374Z,21.37
2019-06-08T14:41:27.061Z,25.11
2019-06-08T14:46:23.147Z,26.30
2019-06-08T14:51:18.592Z,22.85
2019-06-08T14:56:12.741Z,20.74
2019-06-08T15:01:07.905Z,16.23
2019-06-08T15:06:02.249Z,15.73
2019-06-08T15:10:58.208Z,19.32
2019-06-08T15:15:52.270Z,21.40
2019-06-08T15:20:48.104Z,25.17
2019-06-08T15:25:42.655Z,26.04
2019-06-08T15:30:38.042Z,26.82
2019-06-08T15:35:32.360Z,26.95
2019-06-08T15:40:27.682Z,27.04
2019-06-08T15:45:22.122Z,22.81
2019-06-08T15:50:18.014Z,21.69
2019-06-08T15:55:12.145Z,21.22
2019-06-08T16:00:09.649Z,21.63
2019-06-08T16:05:04.677Z,23.48
2019-06-08T16:09:58.747Z,21.87
2019-06-08T16:14:52.839Z,24.20
2019-06-08T16:19:46.817Z,24.14
2019-06-08T16:24:40.791Z,22.05
2019-06-08T16:29:35.151Z,21.32
2019-06-08T16:34:29.241Z,20.58
2019-06-08T16:39:23.189Z,20.18
2019-06-08T16:44:17.175Z,20.09
2019-06-08T16:49:11.262Z,19.70
2019-06-08T16:54:05.330Z,19.58
2019-06-08T16:58:59.289Z,19.24
2019-06-08T17:03:53.295Z,18.82
2019-06-08T17:08:47.371Z,18.58
2019-06-08T17:13:41.409Z,18.57
2019-06-08T17:18:36.254Z,18.77
2019-06-08T17:23:30.716Z,18.84
2019-06-08T17:28:24.786Z,18.98
2019-06-08T17:33:18.772Z,19.61
2019-06-08T17:38:12.863Z,19.97
2019-06-08T17:43:07.344Z,20.26
2019-06-08T17:48:01.333Z,19.42
2019-06-08T17:52:55.413Z,18.75
2019-06-08T17:57:53.423Z,18.66
2019-06-08T18:02:45.478Z,18.86
2019-06-08T18:07:41.989Z,18.93
2019-06-08T18:12:38.663Z,18.61
2019-06-08T18:17:32.226Z,18.27
2019-06-08T18:22:27.146Z,17.92
2019-06-08T18:27:21.278Z,17.93
2019-06-08T18:32:15.337Z,18.04
2019-06-08T18:37:09.496Z,17.94
2019-06-08T18:42:03.479Z,17.88
2019-06-08T18:46:57.737Z,17.76
2019-06-08T18:51:52.036Z,17.77
2019-06-08T18:56:48.701Z,17.59
2019-06-08T19:01:43.217Z,17.56
2019-06-08T19:06:39.344Z,17.44
2019-06-08T19:11:33.318Z,17.38
2019-06-08T19:16:28.486Z,17.35
2019-06-08T19:21:22.645Z,17.28
2019-06-08T19:26:17.194Z,17.25
2019-06-08T19:31:11.296Z,17.24
2019-06-08T19:36:07.640Z,17.10
2019-06-08T19:41:01.378Z,16.96
2019-06-08T19:45:57.829Z,16.91
2019-06-08T19:50:54.110Z,16.91
2019-06-08T19:55:52.013Z,16.78
2019-06-08T20:00:44.259Z,16.62
2019-06-08T20:05:38.335Z,16.36
2019-06-08T20:10:32.318Z,16.19
2019-06-08T20:15:26.341Z,16.01
2019-06-08T20:20:20.391Z,15.84
2019-06-08T20:25:17.192Z,15.70
2019-06-08T20:30:12.246Z,15.61
2019-06-08T20:35:08.032Z,15.40
2019-06-08T20:40:11.159Z,15.23
2019-06-08T20:44:59.637Z,15.16
2019-06-08T20:49:53.624Z,15.03
2019-06-08T20:54:49.275Z,14.95
2019-06-08T20:59:43.650Z,14.86
2019-06-08T21:04:38.329Z,14.73
2019-06-08T21:09:32.681Z,14.64
2019-06-08T21:14:27.344Z,14.61
2019-06-08T21:19:21.619Z,14.48
2019-06-08T21:24:17.347Z,14.43
2019-06-08T21:29:11.875Z,14.39
2019-06-08T21:34:07.387Z,14.33
2019-06-08T21:39:02.611Z,14.23
2019-06-08T21:44:00.776Z,14.16
2019-06-08T21:48:53.499Z,14.06
2019-06-08T21:53:50.060Z,14.01
2019-06-08T21:58:47.111Z,14.01
2019-06-08T22:03:40.619Z,13.93
2019-06-08T22:08:34.623Z,13.88
2019-06-08T22:13:28.903Z,13.85
2019-06-08T22:18:22.860Z,13.89
2019-06-08T22:23:18.018Z,13.79
2019-06-08T22:28:12.134Z,13.71
2019-06-08T22:33:06.125Z,13.63
2019-06-08T22:38:00.935Z,13.62
2019-06-08T22:42:57.780Z,13.59
2019-06-08T22:47:52.913Z,13.53
2019-06-08T22:52:47.693Z,13.49
2019-06-08T22:57:41.765Z,13.41
2019-06-08T23:02:38.249Z,13.48
2019-06-08T23:07:32.806Z,13.41
2019-06-08T23:12:28.726Z,13.33
2019-06-08T23:17:22.820Z,13.37
2019-06-08T23:22:17.733Z,13.35
2019-06-08T23:27:11.912Z,13.29
2019-06-08T23:32:09.530Z,13.26
2019-06-08T23:37:04.509Z,13.22
2019-06-08T23:41:57.709Z,13.12
2019-06-08T23:46:52.013Z,13.13
2019-06-08T23:51:47.542Z,13.05
2019-06-08T23:56:41.639Z,12.96
